| Record Date MM/DD/YYYY | Record Julian Date NNN day of the year | Air Temperature Max (Degrees Fahrenheit F) | Time Max Air Temperature HH:MM:SS This is the time of max air temperature standard time. | Air Temperature Min (Degrees Fahrenheit F) | Time Min Air Temperature HH:MM:SS This is the time of min air temperature standard time. | Air Temperature Observed (Degrees Fahrenheit F) This is an instantaneous reading for air temperature at 7:00:00 standard time. | Relative Humidity Max (Percent) | Time Max Relative Humidity HH:MM:SS This is the time of max relative humidity standard time. | Relative Humidity Min (Percent) | Time Min Relative Humidity HH:MM:SS This is the time of min relative humidity standard time. | Relative Humidity Observed (Percent) This is an instantaneous reading at 7:00:00 standard time. | Precipitation (Inches n.nn) total rain fall that occurred for the day. | Pan Evaporation (Inches n.nn) total evaporation that occured for the day. | Wind Run (Miles) Wind travel for the day. | Wind Speed (Miles Per Hour) Resultant / Average speed for the day. | Wind Direction (Degrees) Resultant Direction for the day | Solar Radiation (Langley's) that occurred for the day. | Soil Temperature Max at 2 inch depth (Degrees Fahrenheit F) that occurred during the day. | Time Max Soil temperature at 2 inches HH:MM:SS This is the time of max 2 inch soil temperature standard time. | Soil Temperature Min at 2 inch depth (Degrees Fahrenheit F) that occurred during the day. | Time Min Soil temperature at 2 inches HH:MM:SS This is the time of min 2 inch soil temperature standard time. | Soil Temperature Observed at 2 inch depth (Degrees Fahrenheit F) This is an instantaneous reading 2 inch soil temperature at 7:00:00 standard time. | Soil Temperature Max at 4 inch depth (Degrees Fahrenheit F) that occurred during the day. | Time Max Soil temperature at 4 inches HH:MM:SS This is the time of max 4 inch soil temperature standard time. | Soil Temperature Min at 4 inch depth (Degrees Fahrenheit F) that occurred during the day. | Time Min Soil temperature at 4 inches HH:MM:SS This is the time of min 4 inch soil temperature standard time. | Soil Temperature Observed at 4 inch depth (Degrees Fahrenheit F) This is an instantaneous reading 4 inch soil temperature at 7:00:00 standard time. | DD50 Degree Days 50 Fahrenheit. | Adjusted DD50 Degree Days 50 Fahrenheit adjusted for latitude. | DD60 Degree Days 60 Fahrenheit. |
|---|---|---|---|---|---|---|---|---|---|---|---|---|---|---|---|---|---|---|---|---|---|---|---|---|---|---|---|---|---|---|
| 07/31/2026 | 212 | 96 | 14:09:03 | 70 | 5:13:02 | 77 | 100 | 21:41:02 | 52 | 14:09:04 | 81 | 1.05 | 33 | 27.24 | 23 | |||||||||||||||
| 08/01/2026 | 213 | 93 | 14:59:05 | 70 | 23:59:02 | 78 | 100 | 0:24:03 | 56 | 15:51:01 | 92 | 0 | 31.5 | 27.21 | 21.5 | |||||||||||||||
| 08/02/2026 | 214 | 82 | 13:15:05 | 68 | 3:32:01 | 71 | 99 | 23:59:01 | 66 | 12:51:05 | 89 | 0.04 | 25 | 26.17 | 15 | |||||||||||||||
| 08/03/2026 | 215 | 87 | 13:07:02 | 69 | 0:28:04 | 73 | 100 | 1:15:05 | 55 | 13:24:03 | 95 | 0 | 28 | 27.14 | 18 | |||||||||||||||
| 08/04/2026 | 216 | 92 | 15:06:03 | 67 | 4:57:02 | 74 | 100 | 5:06:01 | 44 | 14:56:03 | 89 | 0 | 29.5 | 27.11 | 19.5 | |||||||||||||||
| 08/05/2026 | 217 | 94 | 15:48:03 | 68 | 5:10:02 | 76 | 100 | 4:31:02 | 43 | 15:09:05 | 88 | 0 | 31 | 27.07 | 21 | |||||||||||||||
| 08/06/2026 | 218 | 95 | 15:31:05 | 70 | 5:04:05 | 77 | 100 | 5:38:00 | 37 | 15:40:02 | 91 | 0 | 32.5 | 27.04 | 22.5 | |||||||||||||||
| 08/07/2026 | 219 | 94 | 14:03:04 | 73 | 5:02:05 | 78 | 97 | 4:36:03 | 50 | 15:14:00 | 91 | 0 | 33.5 | 27.01 | 23.5 | |||||||||||||||
| 08/08/2026 | 220 | 93 | 12:41:00 | 72 | 5:00:00 | 78 | 99 | 5:51:03 | 53 | 12:38:04 | 93 | 0 | 32.5 | 26.97 | 22.5 | |||||||||||||||
| 08/09/2026 | 221 | 92 | 11:38:04 | 70 | 4:19:03 | 76 | 100 | 23:52:03 | 56 | 11:43:01 | 92 | 0.2 | 31 | 26.94 | 21 | |||||||||||||||
| 08/10/2026 | 222 | 95 | 12:08:00 | 70 | 3:50:00 | 74 | 100 | 1:26:00 | 52 | 14:03:05 | 100 | 0.01 | 32.5 | 26.9 | 22.5 | |||||||||||||||
| 08/11/2026 | 223 | 94 | 15:41:04 | 74 | 5:22:02 | 81 | 100 | 2:27:04 | 53 | 14:34:01 | 88 | 0 | 34 | 26.87 | 24 | |||||||||||||||
| 08/12/2026 | 224 | 97 | 15:42:03 | 74 | 5:00:01 | 82 | 100 | 5:09:00 | 46 | 15:40:05 | 85 | 0.01 | 35.5 | 26.84 | 25.5 | |||||||||||||||
| 08/13/2026 | 225 | 99 | 13:42:02 | 73 | 5:27:02 | 80 | 99 | 4:54:00 | 42 | 13:44:03 | 89 | 0 | 36 | 26.8 | 26 | |||||||||||||||
| 08/14/2026 | 226 | 99 | 14:49:04 | 73 | 5:28:00 | 83 | 99 | 5:16:04 | 37 | 15:53:04 | 81 | 0 | 36 | 26.77 | 26 | |||||||||||||||
| 08/15/2026 | 227 | 101 | 15:32:01 | 70 | 4:36:02 | 79 | 99 | 5:10:05 | 29 | 15:29:05 | 89 | 0 | 35.5 | 26.73 | 25.5 | |||||||||||||||
| 08/16/2026 | 228 | 103 | 13:55:01 | 72 | 5:30:01 | 82 | 99 | 5:50:03 | 34 | 13:47:00 | 83 | 0 | 37.5 | 26.7 | 27.5 | |||||||||||||||
| 08/17/2026 | 229 | 103 | 13:28:02 | 74 | 23:55:01 | 85 | 100 | 23:59:03 | 34 | 12:32:02 | 71 | 0.36 | 38.5 | 26.66 | 28.5 | |||||||||||||||
| 08/18/2026 | 230 | 97 | 13:07:00 | 76 | 0:00:00 | 76 | 99 | 23:41:00 | 43 | 15:02:00 | 97 | 0 | 36.5 | 26.62 | 26.5 | |||||||||||||||
| 08/19/2026 | 231 | 101 | 13:43:04 | 74 | 4:34:04 | 77 | 100 | 2:43:00 | 40 | 14:45:01 | 97 | 0 | 37.5 | 26.59 | 27.5 | |||||||||||||||
| 08/20/2026 | 232 | 101 | 13:44:02 | 74 | 23:56:00 | 81 | 95 | 5:23:03 | 43 | 13:42:05 | 80 | 0 | 37.5 | 26.55 | 27.5 | |||||||||||||||
| 08/21/2026 | 233 | 96 | 15:05:05 | 71 | 23:59:02 | 76 | 98 | 5:42:04 | 45 | 14:24:01 | 91 | 0.03 | 33.5 | 26.52 | 23.5 | |||||||||||||||
| 08/22/2026 | 234 | 98 | 14:25:05 | 68 | 5:24:02 | 75 | 99 | 5:10:02 | 40 | 12:18:04 | 89 | 0 | 33 | 26.48 | 23 | |||||||||||||||
| 08/23/2026 | 235 | 93 | 14:39:01 | 70 | 23:43:01 | 74 | 95 | 23:50:02 | 42 | 15:30:04 | 87 | 0 | 31.5 | 26.45 | 21.5 | |||||||||||||||
| 08/24/2026 | 236 | 95 | 13:18:01 | 70 | 1:05:00 | 74 | 96 | 1:03:03 | 33 | 15:00:03 | 84 | 0 | 32.5 | 26.41 | 22.5 | |||||||||||||||
| 08/25/2026 | 237 | 96 | 12:39:01 | 68 | 3:41:04 | 72 | 96 | 23:54:02 | 40 | 12:39:03 | 91 | 0.03 | 32 | 26.37 | 22 | |||||||||||||||
| 08/26/2026 | 238 | 95 | 13:06:00 | 72 | 5:25:05 | 82 | 100 | 23:19:05 | 49 | 13:21:03 | 77 | 1.24 | 33.5 | 26.34 | 23.5 | |||||||||||||||
| 08/27/2026 | 239 | 92 | 15:15:02 | 71 | 4:39:04 | 73 | 100 | 2:20:03 | 55 | 14:50:01 | 98 | 0 | 31.5 | 26.3 | 21.5 | |||||||||||||||
| 08/28/2026 | 240 | 93 | 15:00:01 | 68 | 23:58:01 | 77 | 100 | 5:34:00 | 36 | 11:47:01 | 85 | 0 | 30.5 | 26.26 | 20.5 | |||||||||||||||
| 08/29/2026 | 241 | 96 | 15:19:00 | 65 | 5:45:02 | 72 | 98 | 5:07:04 | 28 | 15:00:00 | 86 | 0 | 30.5 | 26.23 | 20.5 | |||||||||||||||
| Average | 95.4 | 70.8 | 77.1 | 98.9 | 44.43 | 88.3 | 0.1 | 0 | 0 | 0 | 0 | 0 | 0 | 0 | 0 | 33.1 | 26.71 | 23.1 | ||||||||||||
| Total | 2.97 | 993 | 801.29 | 693 |